EST,Max TemperatureF,Mean TemperatureF,Min TemperatureF,Max Dew PointF,MeanDew PointF,Min DewpointF,Max Humidity, Mean Humidity, Min Humidity, Max Sea Level PressureIn, Mean Sea Level PressureIn, Min Sea Level PressureIn, Max VisibilityMiles, Mean VisibilityMiles, Min VisibilityMiles, Max Wind SpeedMPH, Mean Wind SpeedMPH, Max Gust SpeedMPH,PrecipitationIn, CloudCover, Events, WindDirDegrees
2013-2-1,14,10,6,7,3,0,73,67,62,30.30,30.21,29.99,10,10,5,20,13,28,0.00,3,,245
2013-2-2,26,20,14,21,15,7,86,79,68,30.22,30.04,29.93,10,6,1,10,6,16,0.00,8,Snow,235
2013-2-3,23,18,14,14,12,10,93,76,63,30.03,29.96,29.91,10,7,1,15,4,21,0.00,7,Snow,253
2013-2-4,26,22,17,21,18,12,93,84,74,30.04,29.92,29.83,10,5,0,9,4,,0.07,8,Snow,88
2013-2-5,32,20,8,28,20,5,93,84,60,29.98,29.89,29.80,10,5,0,15,4,21,0.00,6,Fog-Snow,244
2013-2-6,32,26,21,27,18,14,93,66,51,30.26,30.19,29.99,10,10,7,14,6,16,0.00,4,,105
2013-2-7,39,32,26,32,24,18,100,74,60,30.23,30.03,29.78,10,7,3,9,5,,0.02,2,Rain,96
2013-2-8,32,28,23,32,26,19,100,82,64,30.34,30.07,29.77,10,8,2,17,7,25,0.01,6,Snow,316
2013-2-9,32,24,15,23,18,12,93,75,60,30.42,30.34,30.22,10,10,7,9,3,,0.00,0,,110
2013-2-10,46,37,28,45,29,23,93,78,65,30.21,29.96,29.67,10,9,4,14,5,24,0.07,6,Rain,125
2013-2-11,48,40,32,45,29,21,93,73,61,29.96,29.76,29.60,10,10,10,24,14,40,0.00,8,Snow,238
2013-2-12,35,32,30,25,23,21,75,68,60,30.08,30.01,29.93,10,10,10,20,10,28,0.00,7,,260
2013-2-13,42,34,26,28,25,21,87,72,53,29.93,29.82,29.73,10,9,5,8,3,,0.00,3,,246
2013-2-14,42,37,32,32,30,21,93,78,64,29.93,29.79,29.71,10,9,4,20,8,36,0.00,7,,228
2013-2-15,33,27,21,25,19,14,80,67,48,30.14,30.05,29.92,10,10,5,14,7,21,0.00,5,Snow,296
2013-2-16,24,18,12,19,13,3,86,75,49,30.11,30.07,30.02,10,9,0,18,5,24,0.00,6,Snow,283
2013-2-17,30,21,12,14,10,5,86,65,37,30.20,30.15,30.08,10,10,10,9,4,,0.00,2,Snow,285
2013-2-18,51,36,21,39,25,12,81,62,47,30.16,29.88,29.57,10,10,7,18,7,33,0.08,3,Rain,160
2013-2-19,44,30,17,41,19,9,93,76,63,30.03,29.77,29.48,10,7,1,23,17,34,0.05,8,Rain-Snow,247
2013-2-20,23,19,15,18,13,10,80,73,68,30.28,30.19,30.04,10,8,4,17,13,25,0.00,8,Snow,280
2013-2-21,28,24,21,19,16,14,80,70,64,30.35,30.27,30.15,10,10,4,18,8,26,0.00,8,Snow,43
2013-2-22,33,28,23,32,26,16,100,89,74,30.14,29.93,29.86,10,4,0,20,11,26,0.07,8,Fog-Rain-Snow,145
2013-2-23,32,29,26,27,21,19,80,71,64,29.95,29.93,29.89,10,10,10,14,8,17,0.00,8,,248
2013-2-24,35,30,26,23,21,19,86,70,56,30.15,30.06,29.93,10,10,7,12,7,,0.00,4,,267
2013-2-25,41,30,19,28,24,18,93,77,57,30.20,30.13,30.02,10,9,4,15,3,23,0.00,0,,85
2013-2-26,33,32,30,32,29,23,100,87,75,30.02,29.67,29.43,10,6,2,22,11,30,0.47,5,Rain-Snow,67
2013-2-27,33,32,32,32,32,30,100,95,93,29.61,29.53,29.43,10,3,1,12,4,18,0.12,8,Rain-Snow,224
2013-2-28,35,34,32,32,31,30,100,90,81,29.95,29.76,29.58,10,7,1,14,7,18,0.00,8,Rain-Snow,308